sensor_id;sensor_type;location;lat;lon;timestamp;P1;durP1;ratioP1;P2;durP2;ratioP2
79664;SDS011;69132;44.014;20.918;2023-06-14T00:01:58;7.13;;;5.05;;
79664;SDS011;69132;44.014;20.918;2023-06-14T00:04:24;10.45;;;5.85;;
79664;SDS011;69132;44.014;20.918;2023-06-14T00:06:50;10.82;;;5.95;;
79664;SDS011;69132;44.014;20.918;2023-06-14T00:09:17;9.32;;;4.53;;
79664;SDS011;69132;44.014;20.918;2023-06-14T00:11:44;7.55;;;4.60;;
79664;SDS011;69132;44.014;20.918;2023-06-14T00:14:10;5.95;;;4.47;;
79664;SDS011;69132;44.014;20.918;2023-06-14T00:16:36;6.03;;;3.83;;
79664;SDS011;69132;44.014;20.918;2023-06-14T00:19:03;9.82;;;4.85;;
79664;SDS011;69132;44.014;20.918;2023-06-14T00:21:30;7.68;;;5.13;;
79664;SDS011;69132;44.014;20.918;2023-06-14T00:23:57;5.53;;;3.70;;
79664;SDS011;69132;44.014;20.918;2023-06-14T00:26:24;6.63;;;4.13;;
79664;SDS011;69132;44.014;20.918;2023-06-14T00:28:51;7.13;;;4.40;;
79664;SDS011;69132;44.014;20.918;2023-06-14T00:31:17;7.95;;;5.13;;
79664;SDS011;69132;44.014;20.918;2023-06-14T00:33:43;10.95;;;4.28;;
79664;SDS011;69132;44.014;20.918;2023-06-14T00:36:10;7.47;;;3.30;;
79664;SDS011;69132;44.014;20.918;2023-06-14T00:38:36;4.55;;;3.33;;
79664;SDS011;69132;44.014;20.918;2023-06-14T00:41:03;5.07;;;3.85;;
79664;SDS011;69132;44.014;20.918;2023-06-14T00:43:29;3.97;;;3.58;;
79664;SDS011;69132;44.014;20.918;2023-06-14T00:45:56;3.95;;;3.58;;
79664;SDS011;69132;44.014;20.918;2023-06-14T00:48:22;4.40;;;3.22;;
79664;SDS011;69132;44.014;20.918;2023-06-14T00:50:49;6.85;;;5.32;;
79664;SDS011;69132;44.014;20.918;2023-06-14T00:53:16;9.50;;;6.25;;
79664;SDS011;69132;44.014;20.918;2023-06-14T00:55:50;7.40;;;5.78;;
79664;SDS011;69132;44.014;20.918;2023-06-14T00:58:16;6.00;;;3.85;;
79664;SDS011;69132;44.014;20.918;2023-06-14T01:00:42;4.72;;;3.15;;
79664;SDS011;69132;44.014;20.918;2023-06-14T01:03:09;6.43;;;3.53;;
79664;SDS011;69132;44.014;20.918;2023-06-14T01:05:39;5.47;;;3.30;;
79664;SDS011;69132;44.014;20.918;2023-06-14T01:08:11;4.53;;;2.58;;
79664;SDS011;69132;44.014;20.918;2023-06-14T01:15:31;4.25;;;3.28;;
79664;SDS011;69132;44.014;20.918;2023-06-14T01:17:58;5.07;;;3.00;;
79664;SDS011;69132;44.014;20.918;2023-06-14T01:20:29;3.00;;;2.72;;
79664;SDS011;69132;44.014;20.918;2023-06-14T01:22:55;5.63;;;2.80;;
79664;SDS011;69132;44.014;20.918;2023-06-14T01:25:23;7.25;;;2.72;;
79664;SDS011;69132;44.014;20.918;2023-06-14T01:27:51;4.95;;;3.28;;
79664;SDS011;69132;44.014;20.918;2023-06-14T01:30:18;7.40;;;3.63;;
79664;SDS011;69132;44.014;20.918;2023-06-14T01:32:46;7.63;;;4.10;;
79664;SDS011;69132;44.014;20.918;2023-06-14T01:35:12;6.13;;;4.13;;
79664;SDS011;69132;44.014;20.918;2023-06-14T01:37:40;6.53;;;4.07;;
79664;SDS011;69132;44.014;20.918;2023-06-14T01:40:07;11.30;;;4.65;;
79664;SDS011;69132;44.014;20.918;2023-06-14T01:42:34;7.30;;;4.28;;
79664;SDS011;69132;44.014;20.918;2023-06-14T01:45:01;6.20;;;4.18;;
79664;SDS011;69132;44.014;20.918;2023-06-14T01:47:28;9.60;;;7.72;;
79664;SDS011;69132;44.014;20.918;2023-06-14T01:49:54;9.05;;;7.82;;
79664;SDS011;69132;44.014;20.918;2023-06-14T01:52:20;6.38;;;5.03;;
79664;SDS011;69132;44.014;20.918;2023-06-14T01:54:47;8.40;;;6.00;;
79664;SDS011;69132;44.014;20.918;2023-06-14T01:57:14;9.55;;;6.30;;
79664;SDS011;69132;44.014;20.918;2023-06-14T01:59:41;10.32;;;7.78;;
79664;SDS011;69132;44.014;20.918;2023-06-14T02:02:07;7.80;;;6.32;;
79664;SDS011;69132;44.014;20.918;2023-06-14T02:04:34;7.90;;;5.15;;
79664;SDS011;69132;44.014;20.918;2023-06-14T02:07:01;6.95;;;5.10;;
79664;SDS011;69132;44.014;20.918;2023-06-14T02:09:27;9.63;;;6.88;;
79664;SDS011;69132;44.014;20.918;2023-06-14T02:11:54;11.43;;;8.10;;
79664;SDS011;69132;44.014;20.918;2023-06-14T02:14:22;24.27;;;15.40;;
79664;SDS011;69132;44.014;20.918;2023-06-14T02:16:48;21.42;;;11.75;;
79664;SDS011;69132;44.014;20.918;2023-06-14T02:19:18;18.70;;;10.85;;
79664;SDS011;69132;44.014;20.918;2023-06-14T02:21:44;12.40;;;8.30;;
79664;SDS011;69132;44.014;20.918;2023-06-14T02:24:11;16.58;;;8.05;;
79664;SDS011;69132;44.014;20.918;2023-06-14T02:26:37;8.98;;;5.70;;
79664;SDS011;69132;44.014;20.918;2023-06-14T02:29:04;10.52;;;5.47;;
79664;SDS011;69132;44.014;20.918;2023-06-14T02:31:40;12.18;;;8.57;;
79664;SDS011;69132;44.014;20.918;2023-06-14T02:34:06;17.60;;;8.65;;
79664;SDS011;69132;44.014;20.918;2023-06-14T02:36:34;10.65;;;7.10;;
79664;SDS011;69132;44.014;20.918;2023-06-14T02:39:00;9.57;;;6.22;;
79664;SDS011;69132;44.014;20.918;2023-06-14T02:41:27;11.57;;;5.40;;
79664;SDS011;69132;44.014;20.918;2023-06-14T02:43:53;6.95;;;5.55;;
79664;SDS011;69132;44.014;20.918;2023-06-14T02:46:21;7.32;;;4.50;;
79664;SDS011;69132;44.014;20.918;2023-06-14T02:48:47;9.25;;;4.50;;
79664;SDS011;69132;44.014;20.918;2023-06-14T02:51:13;5.57;;;3.25;;
79664;SDS011;69132;44.014;20.918;2023-06-14T02:53:39;5.85;;;3.03;;
79664;SDS011;69132;44.014;20.918;2023-06-14T02:56:05;3.67;;;3.22;;
79664;SDS011;69132;44.014;20.918;2023-06-14T02:58:31;3.60;;;3.20;;
79664;SDS011;69132;44.014;20.918;2023-06-14T03:00:58;3.55;;;3.08;;
79664;SDS011;69132;44.014;20.918;2023-06-14T03:03:28;3.60;;;3.10;;
79664;SDS011;69132;44.014;20.918;2023-06-14T03:05:54;7.00;;;2.67;;
79664;SDS011;69132;44.014;20.918;2023-06-14T03:08:21;6.85;;;4.88;;
79664;SDS011;69132;44.014;20.918;2023-06-14T03:10:52;7.38;;;3.95;;
79664;SDS011;69132;44.014;20.918;2023-06-14T03:13:18;12.43;;;3.50;;
79664;SDS011;69132;44.014;20.918;2023-06-14T03:15:48;6.10;;;3.70;;
79664;SDS011;69132;44.014;20.918;2023-06-14T03:18:16;7.68;;;4.18;;
79664;SDS011;69132;44.014;20.918;2023-06-14T03:20:42;7.70;;;3.50;;
79664;SDS011;69132;44.014;20.918;2023-06-14T03:23:11;4.80;;;3.60;;
79664;SDS011;69132;44.014;20.918;2023-06-14T03:25:38;5.63;;;4.03;;
79664;SDS011;69132;44.014;20.918;2023-06-14T03:28:07;11.27;;;6.10;;
79664;SDS011;69132;44.014;20.918;2023-06-14T03:30:33;8.20;;;6.40;;
79664;SDS011;69132;44.014;20.918;2023-06-14T03:32:59;9.80;;;4.80;;
79664;SDS011;69132;44.014;20.918;2023-06-14T03:35:26;8.52;;;4.82;;
79664;SDS011;69132;44.014;20.918;2023-06-14T03:37:52;6.03;;;4.05;;
79664;SDS011;69132;44.014;20.918;2023-06-14T03:40:18;7.90;;;4.72;;
79664;SDS011;69132;44.014;20.918;2023-06-14T03:42:50;7.47;;;4.20;;
79664;SDS011;69132;44.014;20.918;2023-06-14T03:45:16;6.63;;;3.47;;
79664;SDS011;69132;44.014;20.918;2023-06-14T03:47:42;8.00;;;3.88;;
79664;SDS011;69132;44.014;20.918;2023-06-14T03:50:09;6.10;;;3.83;;
79664;SDS011;69132;44.014;20.918;2023-06-14T03:52:36;5.18;;;4.00;;
79664;SDS011;69132;44.014;20.918;2023-06-14T03:55:02;7.25;;;3.80;;
79664;SDS011;69132;44.014;20.918;2023-06-14T03:57:29;6.35;;;4.07;;
79664;SDS011;69132;44.014;20.918;2023-06-14T03:59:55;6.78;;;4.20;;
79664;SDS011;69132;44.014;20.918;2023-06-14T04:02:21;5.80;;;4.15;;
79664;SDS011;69132;44.014;20.918;2023-06-14T04:04:48;8.43;;;5.50;;
79664;SDS011;69132;44.014;20.918;2023-06-14T04:07:15;9.82;;;5.68;;
79664;SDS011;69132;44.014;20.918;2023-06-14T04:09:44;10.77;;;5.63;;
79664;SDS011;69132;44.014;20.918;2023-06-14T04:12:10;9.27;;;4.43;;
79664;SDS011;69132;44.014;20.918;2023-06-14T04:14:39;5.78;;;4.47;;
79664;SDS011;69132;44.014;20.918;2023-06-14T04:19:31;9.10;;;4.85;;
79664;SDS011;69132;44.014;20.918;2023-06-14T04:21:58;8.88;;;5.90;;
79664;SDS011;69132;44.014;20.918;2023-06-14T04:24:27;8.18;;;5.97;;
79664;SDS011;69132;44.014;20.918;2023-06-14T04:27:00;12.40;;;5.85;;
79664;SDS011;69132;44.014;20.918;2023-06-14T04:29:27;10.55;;;6.15;;
79664;SDS011;69132;44.014;20.918;2023-06-14T04:31:54;8.00;;;5.68;;
79664;SDS011;69132;44.014;20.918;2023-06-14T04:34:27;7.65;;;5.50;;
79664;SDS011;69132;44.014;20.918;2023-06-14T04:36:57;9.35;;;5.55;;
79664;SDS011;69132;44.014;20.918;2023-06-14T04:39:24;5.47;;;4.28;;
79664;SDS011;69132;44.014;20.918;2023-06-14T04:41:51;5.15;;;4.65;;
79664;SDS011;69132;44.014;20.918;2023-06-14T04:44:21;7.88;;;5.68;;
79664;SDS011;69132;44.014;20.918;2023-06-14T04:46:49;8.77;;;5.03;;
79664;SDS011;69132;44.014;20.918;2023-06-14T04:49:16;8.13;;;4.88;;
79664;SDS011;69132;44.014;20.918;2023-06-14T04:51:42;6.20;;;5.20;;
79664;SDS011;69132;44.014;20.918;2023-06-14T04:54:09;10.77;;;4.88;;
79664;SDS011;69132;44.014;20.918;2023-06-14T04:56:38;7.50;;;4.82;;
79664;SDS011;69132;44.014;20.918;2023-06-14T04:59:04;10.65;;;4.93;;
79664;SDS011;69132;44.014;20.918;2023-06-14T05:01:31;8.05;;;5.55;;
79664;SDS011;69132;44.014;20.918;2023-06-14T05:03:58;7.25;;;5.85;;
79664;SDS011;69132;44.014;20.918;2023-06-14T05:06:24;7.85;;;5.20;;
79664;SDS011;69132;44.014;20.918;2023-06-14T05:08:51;7.57;;;5.55;;
79664;SDS011;69132;44.014;20.918;2023-06-14T05:11:17;7.20;;;4.82;;
79664;SDS011;69132;44.014;20.918;2023-06-14T05:13:43;6.53;;;5.43;;
79664;SDS011;69132;44.014;20.918;2023-06-14T05:16:10;7.55;;;4.80;;
79664;SDS011;69132;44.014;20.918;2023-06-14T05:18:37;10.88;;;5.45;;
79664;SDS011;69132;44.014;20.918;2023-06-14T05:21:05;8.93;;;5.17;;
79664;SDS011;69132;44.014;20.918;2023-06-14T05:23:31;9.23;;;5.43;;
79664;SDS011;69132;44.014;20.918;2023-06-14T05:25:57;10.75;;;5.00;;
79664;SDS011;69132;44.014;20.918;2023-06-14T05:28:27;8.45;;;5.60;;
79664;SDS011;69132;44.014;20.918;2023-06-14T05:30:54;10.20;;;5.55;;
79664;SDS011;69132;44.014;20.918;2023-06-14T05:33:23;11.75;;;5.30;;
79664;SDS011;69132;44.014;20.918;2023-06-14T05:35:49;9.57;;;6.90;;
79664;SDS011;69132;44.014;20.918;2023-06-14T05:38:15;8.02;;;5.72;;
79664;SDS011;69132;44.014;20.918;2023-06-14T05:40:41;9.05;;;6.10;;
79664;SDS011;69132;44.014;20.918;2023-06-14T05:43:07;9.77;;;5.63;;
79664;SDS011;69132;44.014;20.918;2023-06-14T05:45:33;9.27;;;5.55;;
79664;SDS011;69132;44.014;20.918;2023-06-14T05:48:00;11.70;;;6.03;;
79664;SDS011;69132;44.014;20.918;2023-06-14T05:50:26;7.95;;;5.65;;
79664;SDS011;69132;44.014;20.918;2023-06-14T05:52:53;8.68;;;5.88;;
79664;SDS011;69132;44.014;20.918;2023-06-14T05:55:19;13.23;;;6.13;;
79664;SDS011;69132;44.014;20.918;2023-06-14T05:57:45;13.30;;;7.00;;
79664;SDS011;69132;44.014;20.918;2023-06-14T06:00:13;10.27;;;5.95;;
79664;SDS011;69132;44.014;20.918;2023-06-14T06:02:44;10.70;;;6.45;;
79664;SDS011;69132;44.014;20.918;2023-06-14T06:05:11;8.68;;;5.68;;
79664;SDS011;69132;44.014;20.918;2023-06-14T06:07:40;8.95;;;6.03;;
79664;SDS011;69132;44.014;20.918;2023-06-14T06:10:06;12.35;;;6.93;;
79664;SDS011;69132;44.014;20.918;2023-06-14T06:12:34;11.20;;;5.60;;
79664;SDS011;69132;44.014;20.918;2023-06-14T06:15:00;9.85;;;5.38;;
79664;SDS011;69132;44.014;20.918;2023-06-14T06:17:27;8.15;;;4.80;;
79664;SDS011;69132;44.014;20.918;2023-06-14T06:19:53;9.18;;;4.97;;
79664;SDS011;69132;44.014;20.918;2023-06-14T06:22:19;7.32;;;5.00;;
79664;SDS011;69132;44.014;20.918;2023-06-14T06:24:47;11.75;;;5.63;;
79664;SDS011;69132;44.014;20.918;2023-06-14T06:27:13;9.07;;;5.38;;
79664;SDS011;69132;44.014;20.918;2023-06-14T06:29:39;10.73;;;6.45;;
79664;SDS011;69132;44.014;20.918;2023-06-14T06:32:05;6.78;;;5.93;;
79664;SDS011;69132;44.014;20.918;2023-06-14T06:34:32;6.10;;;4.40;;
79664;SDS011;69132;44.014;20.918;2023-06-14T06:36:58;7.93;;;4.97;;
79664;SDS011;69132;44.014;20.918;2023-06-14T06:39:26;12.45;;;5.60;;
79664;SDS011;69132;44.014;20.918;2023-06-14T06:41:52;12.05;;;5.55;;
79664;SDS011;69132;44.014;20.918;2023-06-14T06:44:18;7.13;;;4.20;;
79664;SDS011;69132;44.014;20.918;2023-06-14T06:46:45;6.45;;;4.10;;
79664;SDS011;69132;44.014;20.918;2023-06-14T06:49:11;5.97;;;3.33;;
79664;SDS011;69132;44.014;20.918;2023-06-14T06:51:43;4.93;;;3.58;;
79664;SDS011;69132;44.014;20.918;2023-06-14T06:54:10;6.45;;;4.60;;
79664;SDS011;69132;44.014;20.918;2023-06-14T06:56:36;5.47;;;4.07;;
79664;SDS011;69132;44.014;20.918;2023-06-14T06:59:03;10.45;;;4.35;;
79664;SDS011;69132;44.014;20.918;2023-06-14T07:01:29;6.70;;;4.57;;
79664;SDS011;69132;44.014;20.918;2023-06-14T07:03:55;10.35;;;4.72;;
79664;SDS011;69132;44.014;20.918;2023-06-14T07:06:21;8.27;;;4.90;;
79664;SDS011;69132;44.014;20.918;2023-06-14T07:08:47;6.18;;;4.80;;
79664;SDS011;69132;44.014;20.918;2023-06-14T07:11:14;9.18;;;5.32;;
79664;SDS011;69132;44.014;20.918;2023-06-14T07:13:40;8.30;;;4.75;;
79664;SDS011;69132;44.014;20.918;2023-06-14T07:16:08;7.80;;;4.97;;
79664;SDS011;69132;44.014;20.918;2023-06-14T07:18:34;5.00;;;4.43;;
79664;SDS011;69132;44.014;20.918;2023-06-14T07:21:00;4.78;;;3.50;;
79664;SDS011;69132;44.014;20.918;2023-06-14T07:23:26;7.15;;;3.50;;
79664;SDS011;69132;44.014;20.918;2023-06-14T07:25:57;3.95;;;3.65;;
79664;SDS011;69132;44.014;20.918;2023-06-14T07:28:23;4.43;;;3.42;;
79664;SDS011;69132;44.014;20.918;2023-06-14T07:30:49;5.85;;;3.15;;
79664;SDS011;69132;44.014;20.918;2023-06-14T07:33:15;4.22;;;3.30;;
79664;SDS011;69132;44.014;20.918;2023-06-14T07:35:41;6.30;;;3.80;;
79664;SDS011;69132;44.014;20.918;2023-06-14T07:38:07;4.50;;;2.72;;
79664;SDS011;69132;44.014;20.918;2023-06-14T07:40:33;5.88;;;3.20;;
79664;SDS011;69132;44.014;20.918;2023-06-14T07:42:59;3.78;;;3.20;;
79664;SDS011;69132;44.014;20.918;2023-06-14T07:45:27;3.20;;;2.40;;
79664;SDS011;69132;44.014;20.918;2023-06-14T07:47:53;3.35;;;2.70;;
79664;SDS011;69132;44.014;20.918;2023-06-14T07:50:20;4.53;;;2.65;;
79664;SDS011;69132;44.014;20.918;2023-06-14T07:52:46;3.42;;;2.50;;
79664;SDS011;69132;44.014;20.918;2023-06-14T07:55:14;3.20;;;2.35;;
79664;SDS011;69132;44.014;20.918;2023-06-14T07:57:40;2.83;;;2.58;;
79664;SDS011;69132;44.014;20.918;2023-06-14T08:00:08;4.07;;;2.90;;
79664;SDS011;69132;44.014;20.918;2023-06-14T08:02:36;3.50;;;2.45;;
79664;SDS011;69132;44.014;20.918;2023-06-14T08:05:02;2.70;;;2.50;;
79664;SDS011;69132;44.014;20.918;2023-06-14T08:07:30;7.05;;;4.30;;
79664;SDS011;69132;44.014;20.918;2023-06-14T08:09:56;2.85;;;2.45;;
79664;SDS011;69132;44.014;20.918;2023-06-14T08:12:27;3.47;;;2.47;;
79664;SDS011;69132;44.014;20.918;2023-06-14T08:14:54;6.18;;;2.80;;
79664;SDS011;69132;44.014;20.918;2023-06-14T08:17:20;3.67;;;2.47;;
79664;SDS011;69132;44.014;20.918;2023-06-14T08:19:49;4.40;;;2.05;;
79664;SDS011;69132;44.014;20.918;2023-06-14T08:22:15;3.25;;;1.70;;
79664;SDS011;69132;44.014;20.918;2023-06-14T08:24:43;10.10;;;2.55;;
79664;SDS011;69132;44.014;20.918;2023-06-14T08:27:10;3.80;;;2.38;;
79664;SDS011;69132;44.014;20.918;2023-06-14T08:29:36;3.58;;;2.47;;
79664;SDS011;69132;44.014;20.918;2023-06-14T08:34:30;2.15;;;1.95;;
79664;SDS011;69132;44.014;20.918;2023-06-14T08:36:56;3.13;;;2.20;;
79664;SDS011;69132;44.014;20.918;2023-06-14T08:39:23;6.95;;;2.72;;
79664;SDS011;69132;44.014;20.918;2023-06-14T08:41:50;2.13;;;1.90;;
79664;SDS011;69132;44.014;20.918;2023-06-14T08:44:16;4.53;;;2.10;;
79664;SDS011;69132;44.014;20.918;2023-06-14T08:46:42;2.33;;;2.13;;
79664;SDS011;69132;44.014;20.918;2023-06-14T08:49:11;3.05;;;2.10;;
79664;SDS011;69132;44.014;20.918;2023-06-14T08:51:38;2.30;;;2.10;;
79664;SDS011;69132;44.014;20.918;2023-06-14T08:54:05;4.13;;;2.10;;
79664;SDS011;69132;44.014;20.918;2023-06-14T08:56:32;3.28;;;2.55;;
79664;SDS011;69132;44.014;20.918;2023-06-14T08:59:00;2.65;;;2.38;;
79664;SDS011;69132;44.014;20.918;2023-06-14T09:01:28;3.60;;;2.50;;
79664;SDS011;69132;44.014;20.918;2023-06-14T09:03:54;4.10;;;2.35;;
79664;SDS011;69132;44.014;20.918;2023-06-14T09:06:22;2.65;;;1.70;;
79664;SDS011;69132;44.014;20.918;2023-06-14T09:08:49;4.25;;;2.00;;
79664;SDS011;69132;44.014;20.918;2023-06-14T09:11:17;3.95;;;2.40;;
79664;SDS011;69132;44.014;20.918;2023-06-14T09:13:44;4.82;;;3.15;;
79664;SDS011;69132;44.014;20.918;2023-06-14T09:16:11;2.85;;;1.85;;
79664;SDS011;69132;44.014;20.918;2023-06-14T09:18:37;2.97;;;2.42;;
79664;SDS011;69132;44.014;20.918;2023-06-14T09:21:07;2.88;;;2.30;;
79664;SDS011;69132;44.014;20.918;2023-06-14T09:23:38;3.53;;;2.58;;
79664;SDS011;69132;44.014;20.918;2023-06-14T09:26:08;3.92;;;2.58;;
79664;SDS011;69132;44.014;20.918;2023-06-14T09:28:35;1.60;;;1.45;;
79664;SDS011;69132;44.014;20.918;2023-06-14T09:31:01;2.60;;;2.38;;
79664;SDS011;69132;44.014;20.918;2023-06-14T09:33:27;2.20;;;2.08;;
79664;SDS011;69132;44.014;20.918;2023-06-14T09:35:56;3.78;;;2.45;;
79664;SDS011;69132;44.014;20.918;2023-06-14T09:38:23;2.25;;;2.00;;
79664;SDS011;69132;44.014;20.918;2023-06-14T09:40:51;4.68;;;2.30;;
79664;SDS011;69132;44.014;20.918;2023-06-14T09:43:17;3.42;;;2.05;;
79664;SDS011;69132;44.014;20.918;2023-06-14T09:45:43;2.15;;;1.75;;
79664;SDS011;69132;44.014;20.918;2023-06-14T09:48:11;2.38;;;2.10;;
79664;SDS011;69132;44.014;20.918;2023-06-14T09:50:42;2.63;;;1.48;;
79664;SDS011;69132;44.014;20.918;2023-06-14T09:53:10;4.18;;;1.75;;
79664;SDS011;69132;44.014;20.918;2023-06-14T09:55:36;4.40;;;2.00;;
79664;SDS011;69132;44.014;20.918;2023-06-14T09:58:05;2.60;;;2.00;;
79664;SDS011;69132;44.014;20.918;2023-06-14T10:00:32;2.17;;;1.98;;
79664;SDS011;69132;44.014;20.918;2023-06-14T10:03:21;3.15;;;2.00;;
79664;SDS011;69132;44.014;20.918;2023-06-14T10:05:46;4.43;;;1.90;;
79664;SDS011;69132;44.014;20.918;2023-06-14T10:08:17;1.50;;;1.40;;
79664;SDS011;69132;44.014;20.918;2023-06-14T10:10:44;2.05;;;1.63;;
79664;SDS011;69132;44.014;20.918;2023-06-14T10:13:10;2.95;;;1.55;;
79664;SDS011;69132;44.014;20.918;2023-06-14T10:21:14;3.00;;;1.90;;
79664;SDS011;69132;44.014;20.918;2023-06-14T10:23:42;3.58;;;1.58;;
79664;SDS011;69132;44.014;20.918;2023-06-14T10:26:28;1.95;;;1.63;;
79664;SDS011;69132;44.014;20.918;2023-06-14T10:29:10;1.35;;;1.25;;
79664;SDS011;69132;44.014;20.918;2023-06-14T10:31:39;1.98;;;1.50;;
79664;SDS011;69132;44.014;20.918;2023-06-14T10:34:07;1.55;;;1.40;;
79664;SDS011;69132;44.014;20.918;2023-06-14T10:36:33;2.70;;;1.88;;
79664;SDS011;69132;44.014;20.918;2023-06-14T10:41:29;3.13;;;1.50;;
79664;SDS011;69132;44.014;20.918;2023-06-14T10:46:40;3.00;;;1.52;;
79664;SDS011;69132;44.014;20.918;2023-06-14T10:49:06;2.65;;;1.80;;
79664;SDS011;69132;44.014;20.918;2023-06-14T10:51:42;2.70;;;1.80;;
79664;SDS011;69132;44.014;20.918;2023-06-14T10:54:15;3.65;;;1.38;;
79664;SDS011;69132;44.014;20.918;2023-06-14T10:56:51;2.33;;;2.03;;
79664;SDS011;69132;44.014;20.918;2023-06-14T10:59:18;1.95;;;1.40;;
79664;SDS011;69132;44.014;20.918;2023-06-14T11:04:48;2.75;;;1.80;;
79664;SDS011;69132;44.014;20.918;2023-06-14T11:07:25;2.55;;;1.80;;
79664;SDS011;69132;44.014;20.918;2023-06-14T11:12:34;2.35;;;1.70;;
79664;SDS011;69132;44.014;20.918;2023-06-14T11:15:01;2.85;;;1.50;;
79664;SDS011;69132;44.014;20.918;2023-06-14T11:17:30;1.73;;;1.60;;
79664;SDS011;69132;44.014;20.918;2023-06-14T11:20:12;3.50;;;1.50;;
79664;SDS011;69132;44.014;20.918;2023-06-14T11:22:42;4.20;;;1.70;;
79664;SDS011;69132;44.014;20.918;2023-06-14T11:25:08;3.97;;;1.48;;
79664;SDS011;69132;44.014;20.918;2023-06-14T11:27:35;2.05;;;1.60;;
79664;SDS011;69132;44.014;20.918;2023-06-14T11:30:01;34.40;;;4.72;;
79664;SDS011;69132;44.014;20.918;2023-06-14T11:32:31;4.72;;;1.90;;
79664;SDS011;69132;44.014;20.918;2023-06-14T11:34:57;3.58;;;1.55;;
79664;SDS011;69132;44.014;20.918;2023-06-14T11:37:27;3.92;;;1.95;;
79664;SDS011;69132;44.014;20.918;2023-06-14T11:39:58;2.75;;;2.20;;
79664;SDS011;69132;44.014;20.918;2023-06-14T11:42:28;4.88;;;1.98;;
79664;SDS011;69132;44.014;20.918;2023-06-14T11:44:55;12.30;;;2.95;;
79664;SDS011;69132;44.014;20.918;2023-06-14T11:47:21;2.95;;;1.90;;
79664;SDS011;69132;44.014;20.918;2023-06-14T11:49:48;3.28;;;1.85;;
79664;SDS011;69132;44.014;20.918;2023-06-14T11:52:14;1.92;;;1.10;;
79664;SDS011;69132;44.014;20.918;2023-06-14T11:54:40;1.92;;;1.42;;
79664;SDS011;69132;44.014;20.918;2023-06-14T11:57:07;2.03;;;1.57;;
79664;SDS011;69132;44.014;20.918;2023-06-14T11:59:40;2.53;;;1.88;;
79664;SDS011;69132;44.014;20.918;2023-06-14T12:02:06;3.22;;;1.88;;
79664;SDS011;69132;44.014;20.918;2023-06-14T12:04:32;5.25;;;1.70;;
79664;SDS011;69132;44.014;20.918;2023-06-14T12:07:11;2.55;;;1.60;;
79664;SDS011;69132;44.014;20.918;2023-06-14T12:09:40;2.65;;;1.45;;
79664;SDS011;69132;44.014;20.918;2023-06-14T12:12:09;2.42;;;1.58;;
79664;SDS011;69132;44.014;20.918;2023-06-14T12:14:36;4.07;;;2.55;;
79664;SDS011;69132;44.014;20.918;2023-06-14T12:17:05;4.13;;;2.03;;
79664;SDS011;69132;44.014;20.918;2023-06-14T12:19:32;1.52;;;1.42;;
79664;SDS011;69132;44.014;20.918;2023-06-14T12:22:01;3.15;;;1.63;;
79664;SDS011;69132;44.014;20.918;2023-06-14T12:24:29;3.08;;;2.15;;
79664;SDS011;69132;44.014;20.918;2023-06-14T12:26:58;2.90;;;1.90;;
79664;SDS011;69132;44.014;20.918;2023-06-14T12:29:25;2.38;;;1.83;;
79664;SDS011;69132;44.014;20.918;2023-06-14T12:31:51;2.63;;;2.03;;
79664;SDS011;69132;44.014;20.918;2023-06-14T12:36:45;2.38;;;1.63;;
79664;SDS011;69132;44.014;20.918;2023-06-14T12:39:12;2.13;;;1.80;;
79664;SDS011;69132;44.014;20.918;2023-06-14T12:41:38;2.60;;;1.80;;
79664;SDS011;69132;44.014;20.918;2023-06-14T12:44:06;1.60;;;1.50;;
79664;SDS011;69132;44.014;20.918;2023-06-14T12:46:33;1.80;;;1.58;;
79664;SDS011;69132;44.014;20.918;2023-06-14T12:49:00;1.73;;;1.63;;
79664;SDS011;69132;44.014;20.918;2023-06-14T12:51:26;8.20;;;1.77;;
79664;SDS011;69132;44.014;20.918;2023-06-14T12:53:52;2.38;;;1.70;;
79664;SDS011;69132;44.014;20.918;2023-06-14T12:56:20;3.30;;;1.50;;
79664;SDS011;69132;44.014;20.918;2023-06-14T12:58:46;2.55;;;1.83;;
79664;SDS011;69132;44.014;20.918;2023-06-14T13:01:12;2.58;;;1.77;;
79664;SDS011;69132;44.014;20.918;2023-06-14T13:03:38;2.10;;;1.90;;
79664;SDS011;69132;44.014;20.918;2023-06-14T13:06:04;2.92;;;1.65;;
79664;SDS011;69132;44.014;20.918;2023-06-14T13:08:31;3.50;;;1.70;;
79664;SDS011;69132;44.014;20.918;2023-06-14T13:10:58;5.45;;;1.50;;
79664;SDS011;69132;44.014;20.918;2023-06-14T13:13:25;4.30;;;2.53;;
79664;SDS011;69132;44.014;20.918;2023-06-14T13:15:51;3.28;;;2.30;;
79664;SDS011;69132;44.014;20.918;2023-06-14T13:18:17;3.53;;;2.60;;
79664;SDS011;69132;44.014;20.918;2023-06-14T13:20:44;2.85;;;1.90;;
79664;SDS011;69132;44.014;20.918;2023-06-14T13:23:11;6.20;;;2.22;;
79664;SDS011;69132;44.014;20.918;2023-06-14T13:25:37;1.77;;;1.67;;
79664;SDS011;69132;44.014;20.918;2023-06-14T13:28:04;2.20;;;2.00;;
79664;SDS011;69132;44.014;20.918;2023-06-14T13:30:31;4.40;;;1.92;;
79664;SDS011;69132;44.014;20.918;2023-06-14T13:32:57;3.03;;;1.90;;
79664;SDS011;69132;44.014;20.918;2023-06-14T13:35:23;3.13;;;2.20;;
79664;SDS011;69132;44.014;20.918;2023-06-14T13:37:50;5.43;;;2.38;;
79664;SDS011;69132;44.014;20.918;2023-06-14T13:40:16;2.30;;;2.10;;
79664;SDS011;69132;44.014;20.918;2023-06-14T13:42:42;4.47;;;2.20;;
79664;SDS011;69132;44.014;20.918;2023-06-14T13:45:09;7.05;;;3.00;;
79664;SDS011;69132;44.014;20.918;2023-06-14T13:47:36;2.75;;;2.40;;
79664;SDS011;69132;44.014;20.918;2023-06-14T13:50:02;3.85;;;2.40;;
79664;SDS011;69132;44.014;20.918;2023-06-14T13:52:28;3.70;;;2.60;;
79664;SDS011;69132;44.014;20.918;2023-06-14T13:54:55;4.18;;;2.50;;
79664;SDS011;69132;44.014;20.918;2023-06-14T13:57:21;4.65;;;2.80;;
79664;SDS011;69132;44.014;20.918;2023-06-14T13:59:47;6.82;;;3.35;;
79664;SDS011;69132;44.014;20.918;2023-06-14T14:02:13;6.38;;;4.05;;
79664;SDS011;69132;44.014;20.918;2023-06-14T14:04:40;6.75;;;3.08;;
79664;SDS011;69132;44.014;20.918;2023-06-14T14:07:08;3.33;;;2.97;;
79664;SDS011;69132;44.014;20.918;2023-06-14T14:09:34;6.18;;;3.30;;
79664;SDS011;69132;44.014;20.918;2023-06-14T14:12:00;6.70;;;3.58;;
79664;SDS011;69132;44.014;20.918;2023-06-14T14:14:30;3.88;;;3.45;;
79664;SDS011;69132;44.014;20.918;2023-06-14T14:16:57;6.25;;;4.20;;
79664;SDS011;69132;44.014;20.918;2023-06-14T14:19:23;7.15;;;3.05;;
79664;SDS011;69132;44.014;20.918;2023-06-14T14:21:49;7.93;;;3.35;;
79664;SDS011;69132;44.014;20.918;2023-06-14T14:24:15;4.93;;;3.10;;
79664;SDS011;69132;44.014;20.918;2023-06-14T14:26:44;4.70;;;3.00;;
79664;SDS011;69132;44.014;20.918;2023-06-14T14:29:14;6.60;;;3.50;;
79664;SDS011;69132;44.014;20.918;2023-06-14T14:31:42;4.65;;;3.45;;
79664;SDS011;69132;44.014;20.918;2023-06-14T14:34:11;4.28;;;2.90;;
79664;SDS011;69132;44.014;20.918;2023-06-14T14:36:37;5.85;;;3.53;;
79664;SDS011;69132;44.014;20.918;2023-06-14T14:39:07;3.67;;;2.80;;
79664;SDS011;69132;44.014;20.918;2023-06-14T14:41:34;3.33;;;2.72;;
79664;SDS011;69132;44.014;20.918;2023-06-14T14:44:02;4.03;;;3.40;;
79664;SDS011;69132;44.014;20.918;2023-06-14T14:46:30;4.60;;;3.10;;
79664;SDS011;69132;44.014;20.918;2023-06-14T14:48:56;3.53;;;3.05;;
79664;SDS011;69132;44.014;20.918;2023-06-14T14:51:22;6.35;;;3.47;;
79664;SDS011;69132;44.014;20.918;2023-06-14T14:53:48;6.82;;;4.20;;
79664;SDS011;69132;44.014;20.918;2023-06-14T14:56:14;11.38;;;4.78;;
79664;SDS011;69132;44.014;20.918;2023-06-14T14:58:40;8.68;;;6.25;;
79664;SDS011;69132;44.014;20.918;2023-06-14T15:01:06;5.95;;;4.22;;
79664;SDS011;69132;44.014;20.918;2023-06-14T15:03:32;4.22;;;3.63;;